Time;durP1;ratioP1;P1;durP2;ratioP2;P2;SDS_P1;SDS_P2;PMS_P1;PMS_P2;Temp;Humidity;BMP_temperature;BMP_pressure;BME280_temperature;BME280_humidity;BME280_pressure;Samples;Min_cycle;Max_cycle;Signal;HPM_P1;HPM_P2
2023/09/07 00:01:01;;;;;;;;;;;;;;;22.34;57.88;101947.97;5025266;28;4124;-79
2023/09/07 00:03:27;;;;;;;;;;;;;;;22.33;57.96;101937.06;5032320;28;4418;-78
2023/09/07 00:05:54;;;;;;;;;;;;;;;22.32;57.71;101939.22;5026753;28;4149;-79
2023/09/07 00:08:20;;;;;;;;;;;;;;;22.34;57.99;101941.47;5032123;28;4203;-80
2023/09/07 00:10:47;;;;;;;;;;;;;;;22.33;57.78;101948.59;5031975;28;4503;-79
2023/09/07 00:13:13;;;;;;;;;;;;;;;22.32;57.73;101950.00;5027010;28;4089;-79
2023/09/07 00:15:39;;;;;;;;;;;;;;;22.30;58.20;101947.00;5030389;28;4249;-79
2023/09/07 00:18:06;;;;;;;;;;;;;;;22.31;58.01;101945.59;5032210;28;4627;-79
2023/09/07 00:20:33;;;;;;;;;;;;;;;22.32;57.70;101947.13;5031694;28;4126;-79
2023/09/07 00:23:00;;;;;;;;;;;;;;;22.32;57.92;101950.00;5027687;28;4087;-80
2023/09/07 00:25:26;;;;;;;;;;;;;;;22.27;57.75;101951.91;5029624;28;4169;-79
2023/09/07 00:27:53;;;;;;;;;;;;;;;22.27;57.78;101948.28;5030308;28;4423;-80
2023/09/07 00:30:19;;;;;;;;;;;;;;;22.24;57.85;101952.44;5031582;28;4137;-79
2023/09/07 00:32:46;;;;;;;;;;;;;;;22.25;57.69;101953.94;5030893;28;4082;-79
2023/09/07 00:35:12;;;;;;;;;;;;;;;22.24;57.69;101949.53;5030482;28;4572;-79
2023/09/07 00:37:39;;;;;;;;;;;;;;;22.23;57.77;101948.78;5030774;28;4036;-79
2023/09/07 00:40:08;;;;;;;;;;;;;;;22.24;57.67;101943.78;5028727;28;4056;-79
2023/09/07 00:42:36;;;;;;;;;;;;;;;22.24;57.50;101944.53;5027675;28;4061;-78
2023/09/07 00:45:02;;;;;;;;;;;;;;;22.22;57.80;101946.53;5024842;28;4189;-79
2023/09/07 00:47:29;;;;;;;;;;;;;;;22.20;57.59;101946.41;5032813;28;4188;-80
2023/09/07 00:49:55;;;;;;;;;;;;;;;22.21;57.55;101954.44;5044382;28;5184;-79
2023/09/07 00:52:22;;;;;;;;;;;;;;;22.20;57.51;101950.06;5024711;28;4144;-79
2023/09/07 00:54:49;;;;;;;;;;;;;;;22.20;57.44;101943.53;5032495;28;4064;-80
2023/09/07 00:57:15;;;;;;;;;;;;;;;22.18;57.52;101947.03;5029770;28;4209;-79
2023/09/07 00:59:41;;;;;;;;;;;;;;;22.18;57.29;101936.25;5028501;28;4107;-79
2023/09/07 01:02:09;;;;;;;;;;;;;;;22.16;57.63;101936.13;5029326;28;4016;-79
2023/09/07 01:04:36;;;;;;;;;;;;;;;22.17;57.24;101940.53;5026284;28;4263;-79
2023/09/07 01:07:02;;;;;;;;;;;;;;;22.15;57.45;101942.53;5032389;28;4155;-79
2023/09/07 01:09:30;;;;;;;;;;;;;;;22.14;57.30;101935.28;5041776;28;4074;-79
2023/09/07 01:11:57;;;;;;;;;;;;;;;22.13;57.41;101940.31;5024140;28;4132;-79
2023/09/07 01:14:23;;;;;;;;;;;;;;;22.13;57.24;101937.41;5032023;28;4267;-78
2023/09/07 01:16:50;;;;;;;;;;;;;;;22.13;57.15;101940.31;5043598;28;4148;-78
2023/09/07 01:19:16;;;;;;;;;;;;;;;22.13;57.32;101940.31;5042754;28;4124;-79
2023/09/07 01:21:43;;;;;;;;;;;;;;;22.12;57.20;101933.00;5026880;28;4073;-79
2023/09/07 01:24:09;;;;;;;;;;;;;;;22.13;57.38;101940.31;5041873;28;4248;-78
2023/09/07 01:26:38;;;;;;;;;;;;;;;22.13;57.06;101939.56;5010586;28;4145;-79
2023/09/07 01:29:06;;;;;;;;;;;;;;;22.10;57.09;101938.66;5020190;28;4143;-79
2023/09/07 01:31:36;;;;;;;;;;;;;;;22.10;57.35;101935.78;5036582;28;4137;-79
2023/09/07 01:34:04;;;;;;;;;;;;;;;22.11;57.10;101937.31;5029129;28;4148;-79
2023/09/07 01:36:30;;;;;;;;;;;;;;;22.08;57.16;101941.47;5026243;28;4242;-79
2023/09/07 01:38:58;;;;;;;;;;;;;;;22.08;56.94;101938.59;5041246;28;3936;-79
2023/09/07 01:41:24;;;;;;;;;;;;;;;22.07;57.06;101948.59;5024393;28;4171;-79
2023/09/07 01:43:51;;;;;;;;;;;;;;;22.08;57.15;101943.56;5028537;28;4121;-79
2023/09/07 01:46:19;;;;;;;;;;;;;;;22.06;57.07;101947.13;5042418;28;4108;-78
2023/09/07 01:48:45;;;;;;;;;;;;;;;22.06;57.07;101934.81;5027644;28;4159;-78
2023/09/07 01:51:12;;;;;;;;;;;;;;;22.07;56.73;101939.94;5025864;28;3918;-79
2023/09/07 01:53:39;;;;;;;;;;;;;;;22.07;56.68;101936.31;5043998;28;4195;-78
2023/09/07 01:56:06;;;;;;;;;;;;;;;22.03;57.10;101942.59;5027395;28;4027;-79
2023/09/07 01:58:32;;;;;;;;;;;;;;;22.02;56.94;101938.22;5024027;28;4135;-79
2023/09/07 02:00:59;;;;;;;;;;;;;;;22.04;56.59;101944.13;5016092;28;4023;-80
2023/09/07 02:03:26;;;;;;;;;;;;;;;22.03;56.59;101936.81;5028292;28;4171;-79
2023/09/07 02:05:52;;;;;;;;;;;;;;;22.03;56.81;101931.06;5026462;28;4056;-79
2023/09/07 02:08:19;;;;;;;;;;;;;;;22.05;56.51;101939.84;5045582;28;4195;-79
2023/09/07 02:10:45;;;;;;;;;;;;;;;22.05;56.48;101933.31;5030464;28;4002;-79
2023/09/07 02:13:12;;;;;;;;;;;;;;;22.01;56.83;101936.72;5041380;28;4396;-79
2023/09/07 02:15:39;;;;;;;;;;;;;;;22.00;56.53;101928.72;5027661;28;4170;-77
2023/09/07 02:18:06;;;;;;;;;;;;;;;22.03;56.38;101930.31;5026351;28;4162;-79
2023/09/07 02:20:32;;;;;;;;;;;;;;;22.00;56.57;101920.81;5022284;28;4143;-79
2023/09/07 02:22:59;;;;;;;;;;;;;;;21.97;56.54;101936.50;5030963;28;4153;-78
2023/09/07 02:25:25;;;;;;;;;;;;;;;21.96;56.18;101929.97;5030713;28;3962;-79
2023/09/07 02:27:51;;;;;;;;;;;;;;;21.96;56.51;101929.22;5027520;28;4091;-79
2023/09/07 02:30:18;;;;;;;;;;;;;;;21.97;56.38;101933.63;5025518;28;4093;-79
2023/09/07 02:32:44;;;;;;;;;;;;;;;22.00;56.08;101926.56;5024603;28;4109;-79
2023/09/07 02:35:11;;;;;;;;;;;;;;;21.98;56.13;101929.34;5030532;28;3934;-79
2023/09/07 02:37:39;;;;;;;;;;;;;;;21.98;56.16;101929.34;5025339;28;4177;-78
2023/09/07 02:40:09;;;;;;;;;;;;;;;21.97;56.12;101924.97;5026451;28;4227;-79
2023/09/07 02:42:36;;;;;;;;;;;;;;;21.97;56.39;101922.09;5040892;28;5422;-78
2023/09/07 02:45:02;;;;;;;;;;;;;;;21.96;56.31;101926.34;5025905;28;4107;-78
2023/09/07 02:47:28;;;;;;;;;;;;;;;21.96;56.10;101932.84;5025849;28;4208;-79
2023/09/07 02:49:55;;;;;;;;;;;;;;;21.94;56.34;101937.75;5028188;28;4145;-79
2023/09/07 02:52:22;;;;;;;;;;;;;;;21.96;56.03;101937.88;5028084;28;4067;-79
2023/09/07 02:54:49;;;;;;;;;;;;;;;21.94;55.99;101929.88;5025379;28;4244;-79
2023/09/07 02:57:16;;;;;;;;;;;;;;;21.97;55.97;101933.63;5026671;28;4221;-78
2023/09/07 02:59:43;;;;;;;;;;;;;;;21.93;55.88;101930.50;5039570;28;4323;-76
2023/09/07 03:02:09;;;;;;;;;;;;;;;21.95;56.03;101931.34;5026197;28;4424;-79
2023/09/07 03:04:36;;;;;;;;;;;;;;;21.90;55.91;101931.78;5040616;28;4095;-79
2023/09/07 03:07:03;;;;;;;;;;;;;;;21.94;55.95;101943.53;5027230;28;4072;-80
2023/09/07 03:09:30;;;;;;;;;;;;;;;21.91;55.98;101939.78;5025329;28;4226;-79
2023/09/07 03:11:56;;;;;;;;;;;;;;;21.93;55.83;101942.03;5026596;28;4129;-79
2023/09/07 03:14:24;;;;;;;;;;;;;;;21.96;55.82;101937.88;5041721;28;4235;-79
2023/09/07 03:16:50;;;;;;;;;;;;;;;21.92;55.89;101938.41;5024038;28;4895;-79
2023/09/07 03:19:17;;;;;;;;;;;;;;;21.90;55.78;101941.16;5040538;28;4123;-79
2023/09/07 03:21:44;;;;;;;;;;;;;;;21.90;55.77;101940.44;5025071;28;4549;-79
2023/09/07 03:24:10;;;;;;;;;;;;;;;21.93;55.44;101939.16;5026776;28;3985;-79
2023/09/07 03:26:36;;;;;;;;;;;;;;;21.83;55.86;101936.44;5023931;28;4397;-79
2023/09/07 03:29:03;;;;;;;;;;;;;;;21.90;55.48;101934.66;5026941;28;4078;-75
2023/09/07 03:31:30;;;;;;;;;;;;;;;22.04;55.37;101946.25;5043665;28;4972;-76
2023/09/07 03:33:57;;;;;;;;;;;;;;;21.88;55.07;101935.28;5040117;28;4470;-77
2023/09/07 03:36:23;;;;;;;;;;;;;;;21.80;55.22;101936.94;5032125;28;4117;-77
2023/09/07 03:38:50;;;;;;;;;;;;;;;21.81;55.06;101926.94;5026229;28;4153;-77
2023/09/07 03:41:16;;;;;;;;;;;;;;;21.84;54.71;101931.41;5023836;28;4207;-68
2023/09/07 03:43:43;;;;;;;;;;;;;;;21.81;54.75;101930.56;5031896;28;3995;-72
2023/09/07 03:46:09;;;;;;;;;;;;;;;21.79;54.67;101929.69;5029410;28;4090;-67
2023/09/07 03:48:36;;;;;;;;;;;;;;;21.79;54.55;101935.47;5030411;28;4247;-67
2023/09/07 03:51:07;;;;;;;;;;;;;;;21.81;54.20;101938.47;5048417;28;4196;-67
2023/09/07 03:53:33;;;;;;;;;;;;;;;21.77;54.21;101941.84;5033783;28;4173;-67
2023/09/07 03:56:01;;;;;;;;;;;;;;;21.78;54.28;101945.47;5031204;28;4148;-67
2023/09/07 03:58:28;;;;;;;;;;;;;;;21.72;54.31;101935.09;5044081;28;4229;-66
2023/09/07 04:00:55;;;;;;;;;;;;;;;21.77;54.10;101944.00;5041149;28;4225;-66
2023/09/07 04:03:21;;;;;;;;;;;;;;;21.73;54.21;101938.72;5027917;28;4569;-66
2023/09/07 04:05:48;;;;;;;;;;;;;;;21.70;54.29;101937.88;5045979;28;4492;-66
2023/09/07 04:08:15;;;;;;;;;;;;;;;21.69;53.96;101936.38;5031867;28;4431;-66
2023/09/07 04:10:41;;;;;;;;;;;;;;;21.70;53.92;101946.50;5031957;28;4112;-66
2023/09/07 04:13:08;;;;;;;;;;;;;;;21.66;53.96;101946.28;5030753;28;4162;-66
2023/09/07 04:15:41;;;;;;;;;;;;;;;21.63;54.11;101936.00;5028958;28;4378;-67
2023/09/07 04:18:08;;;;;;;;;;;;;;;21.67;53.52;101953.56;5045020;28;4343;-67
2023/09/07 04:20:34;;;;;;;;;;;;;;;21.64;53.59;101948.28;5031241;28;4393;-67
2023/09/07 04:23:01;;;;;;;;;;;;;;;21.65;53.66;101944.03;5028716;28;4269;-66
2023/09/07 04:25:28;;;;;;;;;;;;;;;21.61;53.78;101949.56;5032961;28;4095;-66
2023/09/07 04:27:56;;;;;;;;;;;;;;;21.62;53.72;101951.78;5028374;28;4255;-66
2023/09/07 04:30:23;;;;;;;;;;;;;;;21.60;53.81;101954.59;5030408;28;4037;-67
2023/09/07 04:32:50;;;;;;;;;;;;;;;21.62;53.47;101954.69;5045455;28;4184;-67
2023/09/07 04:35:17;;;;;;;;;;;;;;;21.64;53.56;101960.56;5041783;28;4283;-66
2023/09/07 04:37:43;;;;;;;;;;;;;;;21.70;53.36;101955.16;5029832;28;4167;-67
2023/09/07 04:40:10;;;;;;;;;;;;;;;21.55;53.43;101952.81;5029541;28;4214;-66
2023/09/07 04:42:38;;;;;;;;;;;;;;;21.63;53.12;101958.31;5029163;28;4382;-67
2023/09/07 04:45:05;;;;;;;;;;;;;;;21.65;52.91;101952.69;5025233;28;4136;-67
2023/09/07 04:47:32;;;;;;;;;;;;;;;21.40;53.75;101953.34;5028340;28;4562;-67
2023/09/07 04:49:59;;;;;;;;;;;;;;;21.10;54.00;101967.44;5044067;28;3982;-67
2023/09/07 04:52:25;;;;;;;;;;;;;;;20.90;54.10;101961.16;5027204;28;4034;-68
2023/09/07 04:54:52;;;;;;;;;;;;;;;20.80;54.50;101969.16;5031220;28;4118;-70
2023/09/07 04:57:18;;;;;;;;;;;;;;;21.00;54.29;101966.78;5025064;28;4372;-71
2023/09/07 04:59:46;;;;;;;;;;;;;;;21.14;53.82;101964.78;5037156;28;4565;-82
2023/09/07 05:02:13;;;;;;;;;;;;;;;21.27;53.91;101972.03;5028662;28;4300;-78
2023/09/07 05:04:39;;;;;;;;;;;;;;;21.26;53.67;101977.03;5030577;28;4625;-77
2023/09/07 05:07:06;;;;;;;;;;;;;;;21.27;53.80;101969.88;5030879;28;4169;-79
2023/09/07 05:09:33;;;;;;;;;;;;;;;21.28;54.02;101970.63;5035469;28;4033;-77
2023/09/07 05:11:59;;;;;;;;;;;;;;;21.29;54.39;101972.91;5045014;28;5111;-78
2023/09/07 05:14:26;;;;;;;;;;;;;;;21.23;54.72;101969.63;5033680;28;4028;-77
2023/09/07 05:16:52;;;;;;;;;;;;;;;21.22;54.90;101965.28;5029784;28;4892;-76
2023/09/07 05:19:19;;;;;;;;;;;;;;;21.23;54.61;101975.41;5032689;28;4082;-75
2023/09/07 05:21:45;;;;;;;;;;;;;;;21.25;55.10;101966.88;5026829;28;4201;-74
2023/09/07 05:24:12;;;;;;;;;;;;;;;20.96;55.97;101969.41;5044504;28;4112;-72
2023/09/07 05:26:39;;;;;;;;;;;;;;;20.74;56.42;101972.41;5043057;28;5252;-71
2023/09/07 05:29:06;;;;;;;;;;;;;;;20.67;57.13;101970.53;5024652;28;4214;-71
2023/09/07 05:31:32;;;;;;;;;;;;;;;20.61;57.58;101967.28;5024951;28;4204;-71
2023/09/07 05:34:00;;;;;;;;;;;;;;;20.59;57.83;101961.38;5025900;28;4395;-71
2023/09/07 05:36:27;;;;;;;;;;;;;;;20.47;58.37;101970.72;5039679;28;4176;-68
2023/09/07 05:38:53;;;;;;;;;;;;;;;20.38;59.01;101971.56;5020191;28;4107;-68
2023/09/07 05:41:20;;;;;;;;;;;;;;;20.23;59.83;101977.81;5021227;28;4218;-69
2023/09/07 05:43:46;;;;;;;;;;;;;;;20.22;60.48;101979.91;5023313;28;4177;-68
2023/09/07 05:46:12;;;;;;;;;;;;;;;20.49;60.03;101976.59;5030958;28;4174;-68
2023/09/07 05:48:40;;;;;;;;;;;;;;;20.80;59.42;101981.44;5044560;28;4322;-68
2023/09/07 05:51:06;;;;;;;;;;;;;;;20.86;59.20;101983.94;5054774;28;4154;-68
2023/09/07 05:53:33;;;;;;;;;;;;;;;21.01;59.03;101985.59;5033408;28;4142;-68
2023/09/07 05:55:59;;;;;;;;;;;;;;;20.85;60.10;101988.94;5029897;28;4131;-67
2023/09/07 05:58:25;;;;;;;;;;;;;;;20.72;61.14;101992.44;5032518;28;4189;-81
2023/09/07 06:00:52;;;;;;;;;;;;;;;21.20;60.14;101993.22;5036313;28;4138;-81
2023/09/07 06:03:19;;;;;;;;;;;;;;;21.34;59.67;101986.16;5026017;28;5109;-78
2023/09/07 06:05:46;;;;;;;;;;;;;;;21.53;59.81;101985.16;5038370;28;3911;-79
2023/09/07 06:08:12;;;;;;;;;;;;;;;21.62;59.87;101985.63;5034481;28;4428;-73
2023/09/07 06:10:39;;;;;;;;;;;;;;;21.67;60.14;101988.16;5022912;28;4042;-76
2023/09/07 06:13:07;;;;;;;;;;;;;;;21.74;60.38;101992.88;5026400;28;4193;-73
2023/09/07 06:15:33;;;;;;;;;;;;;;;21.81;60.18;101996.88;5046735;28;4049;-80
2023/09/07 06:18:00;;;;;;;;;;;;;;;21.99;60.27;101994.31;5021998;28;6850;-76
2023/09/07 06:20:26;;;;;;;;;;;;;;;22.09;60.25;101986.22;5055541;28;4201;-83
2023/09/07 06:22:55;;;;;;;;;;;;;;;21.93;60.35;101993.94;5054614;28;4008;-76
2023/09/07 06:25:22;;;;;;;;;;;;;;;21.65;60.99;101996.66;5034418;28;4625;-75
2023/09/07 06:27:49;;;;;;;;;;;;;;;21.71;60.76;101999.88;5048867;28;4094;-75
2023/09/07 06:30:16;;;;;;;;;;;;;;;21.72;61.05;101994.91;5055799;28;4091;-75
2023/09/07 06:32:43;;;;;;;;;;;;;;;21.81;60.74;101996.88;5034266;28;5426;-68
2023/09/07 06:35:10;;;;;;;;;;;;;;;21.99;60.29;101999.31;5041116;28;4972;-68
2023/09/07 06:37:40;;;;;;;;;;;;;;;21.91;59.92;101997.44;5044696;28;4118;-73
2023/09/07 06:40:08;;;;;;;;;;;;;;;22.06;59.53;101999.03;5036901;28;3974;-70
2023/09/07 06:42:34;;;;;;;;;;;;;;;22.12;58.68;101990.72;5035923;28;4085;-70
2023/09/07 06:45:05;;;;;;;;;;;;;;;22.08;58.86;101995.50;5044544;28;4756;-73
2023/09/07 06:47:32;;;;;;;;;;;;;;;22.15;58.29;101989.47;5026353;28;4303;-72
2023/09/07 06:49:59;;;;;;;;;;;;;;;22.23;57.81;101988.44;5031913;28;4181;-72
2023/09/07 06:52:27;;;;;;;;;;;;;;;22.15;58.12;101991.56;5027263;28;4091;-68
2023/09/07 06:54:54;;;;;;;;;;;;;;;22.12;58.25;101995.75;5028394;28;4066;-68
2023/09/07 06:57:21;;;;;;;;;;;;;;;22.23;57.99;101992.06;5028803;28;4147;-68
2023/09/07 06:59:48;;;;;;;;;;;;;;;22.28;57.76;102002.47;5044866;28;4065;-70
2023/09/07 07:02:15;;;;;;;;;;;;;;;22.38;57.40;102008.06;5033662;28;3935;-70
2023/09/07 07:04:41;;;;;;;;;;;;;;;22.34;57.65;102008.59;5028832;28;4375;-71
2023/09/07 07:07:07;;;;;;;;;;;;;;;22.42;57.66;102002.50;5031061;28;4066;-70
2023/09/07 07:09:34;;;;;;;;;;;;;;;22.43;57.30;102009.06;5028097;28;4365;-71
2023/09/07 07:12:01;;;;;;;;;;;;;;;22.44;57.21;102008.38;5045274;28;4786;-69
2023/09/07 07:14:27;;;;;;;;;;;;;;;22.48;57.41;102014.41;5040694;28;4059;-69
2023/09/07 07:16:54;;;;;;;;;;;;;;;22.43;57.06;102004.03;5030821;28;4017;-68
2023/09/07 07:19:21;;;;;;;;;;;;;;;22.34;57.28;102011.47;5047187;28;4111;-71
2023/09/07 07:21:48;;;;;;;;;;;;;;;22.49;56.96;102010.13;5035419;28;4127;-72
2023/09/07 07:24:15;;;;;;;;;;;;;;;22.54;57.00;102011.09;5036859;28;4007;-72
2023/09/07 07:26:42;;;;;;;;;;;;;;;22.62;56.69;102010.81;5035695;28;4173;-72
2023/09/07 07:29:09;;;;;;;;;;;;;;;22.66;56.37;102005.25;5039363;28;4048;-72
2023/09/07 07:31:36;;;;;;;;;;;;;;;22.72;56.55;102012.13;5051589;28;4035;-70
2023/09/07 07:34:02;;;;;;;;;;;;;;;22.70;56.41;102006.25;5037118;28;4116;-73
2023/09/07 07:36:29;;;;;;;;;;;;;;;22.78;56.24;102008.81;5035000;28;4289;-70
2023/09/07 07:38:59;;;;;;;;;;;;;;;22.59;56.63;102010.69;5045121;28;4191;-73
2023/09/07 07:41:26;;;;;;;;;;;;;;;22.69;56.44;102010.50;5048557;28;4457;-71
2023/09/07 07:43:52;;;;;;;;;;;;;;;22.76;56.03;102014.47;5047009;28;4100;-70
2023/09/07 07:46:19;;;;;;;;;;;;;;;22.73;56.27;102015.75;5034131;28;4668;-75
2023/09/07 07:48:46;;;;;;;;;;;;;;;22.79;56.14;102013.19;5028018;28;4343;-68
2023/09/07 07:51:13;;;;;;;;;;;;;;;22.85;55.89;102004.84;5033716;28;3975;-76
2023/09/07 07:53:41;;;;;;;;;;;;;;;22.90;55.42;102005.81;5034568;28;6695;-74
2023/09/07 07:56:16;;;;;;;;;;;;;;;22.92;55.44;102008.84;5033418;28;3983;-73
2023/09/07 07:58:43;;;;;;;;;;;;;;;22.93;55.60;102011.09;5035117;28;5040;-73
2023/09/07 08:01:16;;;;;;;;;;;;;;;22.92;55.18;102008.84;5054291;28;4038;-73
2023/09/07 08:03:44;;;;;;;;;;;;;;;22.81;55.78;102010.41;5053730;28;4387;-70
2023/09/07 08:06:11;;;;;;;;;;;;;;;22.86;55.73;102011.38;5035207;28;6137;-69
2023/09/07 08:08:38;;;;;;;;;;;;;;;22.88;54.99;102009.34;5034703;28;4249;-72
2023/09/07 08:11:05;;;;;;;;;;;;;;;23.03;55.34;102007.28;5051586;28;5950;-75
2023/09/07 08:13:34;;;;;;;;;;;;;;;23.12;54.83;102009.22;5027055;28;4436;-70
2023/09/07 08:16:03;;;;;;;;;;;;;;;23.09;54.77;102016.25;5025421;28;5033;-69
2023/09/07 08:18:32;;;;;;;;;;;;;;;23.05;55.03;102011.03;5032862;28;4122;-69
2023/09/07 08:20:59;;;;;;;;;;;;;;;23.06;54.85;102006.72;5032081;28;4160;-70
2023/09/07 08:23:26;;;;;;;;;;;;;;;23.09;54.34;102008.34;5030067;28;4774;-70
2023/09/07 08:25:52;;;;;;;;;;;;;;;23.03;55.03;102013.06;5029311;28;4189;-68
2023/09/07 08:28:22;;;;;;;;;;;;;;;22.97;55.18;102011.28;5029916;28;4132;-68
2023/09/07 08:30:49;;;;;;;;;;;;;;;23.00;55.42;102009.31;5033187;28;6233;-75
2023/09/07 08:33:16;;;;;;;;;;;;;;;23.04;55.13;102008.75;5035258;28;4363;-66
2023/09/07 08:35:44;;;;;;;;;;;;;;;23.00;55.29;102007.16;5034078;28;1719;-65
2023/09/07 08:38:10;;;;;;;;;;;;;;;23.02;54.76;102006.53;5029856;28;1623;-67
2023/09/07 08:40:40;;;;;;;;;;;;;;;22.91;55.56;102002.31;5025897;28;1675;-65
2023/09/07 08:43:07;;;;;;;;;;;;;;;23.21;54.82;102000.31;5024976;28;3724;-67
2023/09/07 08:45:36;;;;;;;;;;;;;;;23.26;54.39;101998.38;5033064;28;6357;-65
2023/09/07 08:48:03;;;;;;;;;;;;;;;23.25;54.43;102005.56;5036713;28;4431;-65
2023/09/07 08:50:30;;;;;;;;;;;;;;;23.13;54.74;101999.13;5025483;28;4170;-66
2023/09/07 08:52:59;;;;;;;;;;;;;;;23.07;54.73;102002.47;5039508;28;3649;-66
2023/09/07 08:55:25;;;;;;;;;;;;;;;23.25;54.41;102011.34;5018763;28;7139;-65
2023/09/07 08:57:52;;;;;;;;;;;;;;;23.29;54.04;102002.88;5031243;28;1563;-65
2023/09/07 09:00:19;;;;;;;;;;;;;;;23.28;54.06;102004.28;5020611;28;6880;-65
2023/09/07 09:02:46;;;;;;;;;;;;;;;23.26;54.14;102012.84;5035046;28;1603;-68
2023/09/07 09:05:21;;;;;;;;;;;;;;;23.29;54.16;102011.53;5018719;28;4644;-68
2023/09/07 09:07:48;;;;;;;;;;;;;;;23.31;53.63;102008.75;5040114;28;2950;-68
2023/09/07 09:10:14;;;;;;;;;;;;;;;23.41;52.87;102006.41;5027055;28;3197;-69
2023/09/07 09:12:47;;;;;;;;;;;;;;;23.51;52.99;102008.34;5022580;28;2864;-66
2023/09/07 09:15:13;;;;;;;;;;;;;;;23.47;53.36;102005.22;5024171;28;3156;-66
2023/09/07 09:17:39;;;;;;;;;;;;;;;23.44;53.63;102009.41;5019859;28;3440;-65
2023/09/07 09:20:19;;;;;;;;;;;;;;;23.19;53.50;102005.25;5035277;28;1666;-64
2023/09/07 09:22:45;;;;;;;;;;;;;;;23.20;53.54;102009.63;5021838;28;4073;-66
2023/09/07 09:25:12;;;;;;;;;;;;;;;23.52;53.48;101998.25;4999093;28;7213;-67
2023/09/07 09:27:38;;;;;;;;;;;;;;;23.56;52.95;102004.25;5015125;28;7009;-66
2023/09/07 09:30:05;;;;;;;;;;;;;;;23.31;52.41;102002.97;5024201;28;6470;-64
2023/09/07 09:32:31;;;;;;;;;;;;;;;23.40;53.49;101998.38;5021634;28;2911;-68
2023/09/07 09:34:58;;;;;;;;;;;;;;;23.57;52.61;101994.16;5042327;28;2631;-67
2023/09/07 09:37:24;;;;;;;;;;;;;;;23.62;52.56;101995.91;5037338;28;3202;-68
2023/09/07 09:39:51;;;;;;;;;;;;;;;23.60;52.14;101987.13;5029074;28;3327;-64
2023/09/07 09:42:17;;;;;;;;;;;;;;;23.36;51.90;101978.69;5030679;28;3240;-63
2023/09/07 09:44:43;;;;;;;;;;;;;;;23.34;51.95;101978.59;5037326;28;3049;-64
2023/09/07 09:47:10;;;;;;;;;;;;;;;23.30;51.76;101977.63;5028125;28;2657;-69
2023/09/07 09:49:36;;;;;;;;;;;;;;;23.21;52.03;101980.09;5028191;28;2877;-68
2023/09/07 09:52:04;;;;;;;;;;;;;;;23.19;52.25;101971.31;5026272;28;4528;-67
2023/09/07 09:54:30;;;;;;;;;;;;;;;23.11;52.43;101970.13;5042751;28;2341;-67
2023/09/07 09:56:57;;;;;;;;;;;;;;;23.15;52.69;101967.47;5022817;28;2251;-75
2023/09/07 09:59:23;;;;;;;;;;;;;;;23.49;52.40;101967.75;5010852;28;7018;-76
2023/09/07 10:02:00;;;;;;;;;;;;;;;23.38;51.96;101975.16;5004743;28;6270;-70
2023/09/07 10:04:27;;;;;;;;;;;;;;;23.58;52.05;101972.56;4982341;28;4529;-69
2023/09/07 10:07:05;;;;;;;;;;;;;;;23.74;52.21;101984.19;4982039;28;2488;-69
2023/09/07 10:09:34;;;;;;;;;;;;;;;23.85;51.39;101976.81;4982080;28;2921;-69
2023/09/07 10:12:03;;;;;;;;;;;;;;;23.89;51.43;101977.00;4979441;28;3097;-69
2023/09/07 10:14:40;;;;;;;;;;;;;;;23.91;51.69;101977.09;4985288;28;3262;-72
2023/09/07 10:17:06;;;;;;;;;;;;;;;23.97;51.39;101974.50;4985967;28;3001;-71
2023/09/07 10:19:36;;;;;;;;;;;;;;;23.93;51.39;101969.25;4991772;28;2520;-72
2023/09/07 10:22:03;;;;;;;;;;;;;;;24.03;51.24;101957.47;4976748;28;2640;-72
2023/09/07 10:24:30;;;;;;;;;;;;;;;23.95;51.56;101969.38;4969052;28;3067;-70
2023/09/07 10:26:59;;;;;;;;;;;;;;;24.06;51.66;101967.72;4966067;28;3361;-71
2023/09/07 10:29:26;;;;;;;;;;;;;;;24.00;51.74;101964.53;4966955;28;3696;-68
2023/09/07 10:31:52;;;;;;;;;;;;;;;24.12;51.14;101968.03;4970319;28;6212;-67
2023/09/07 10:34:20;;;;;;;;;;;;;;;24.08;50.94;101967.81;4972523;28;2482;-68
2023/09/07 10:36:47;;;;;;;;;;;;;;;24.17;50.86;101966.81;4962264;28;4207;-68
2023/09/07 10:39:13;;;;;;;;;;;;;;;24.06;51.25;101967.72;4967434;28;2706;-67
2023/09/07 10:41:43;;;;;;;;;;;;;;;24.08;51.02;101953.34;4968200;28;2826;-78
2023/09/07 10:44:10;;;;;;;;;;;;;;;24.02;51.15;101961.72;4982173;28;4343;-66
2023/09/07 10:46:37;;;;;;;;;;;;;;;24.04;51.34;101958.94;4972701;28;1582;-68
2023/09/07 10:49:04;;;;;;;;;;;;;;;24.16;50.99;101958.78;4969997;28;3587;-68
2023/09/07 10:51:30;;;;;;;;;;;;;;;24.14;50.72;101962.31;4988387;28;1854;-69
2023/09/07 10:53:57;;;;;;;;;;;;;;;24.10;50.56;101955.59;4969884;28;1607;-69
2023/09/07 10:56:26;;;;;;;;;;;;;;;24.07;51.61;101960.53;4972251;28;1590;-67
2023/09/07 10:58:53;;;;;;;;;;;;;;;23.98;51.60;101955.75;4972889;28;1630;-66
2023/09/07 11:01:19;;;;;;;;;;;;;;;24.07;51.59;101951.84;4986404;28;6163;-80
2023/09/07 11:03:46;;;;;;;;;;;;;;;23.85;51.62;101947.88;4991442;28;3188;-76
2023/09/07 11:06:17;;;;;;;;;;;;;;;23.81;51.95;101948.41;4989627;28;2912;-71
2023/09/07 11:08:43;;;;;;;;;;;;;;;24.04;51.47;101941.59;4985258;28;2945;-70
2023/09/07 11:11:10;;;;;;;;;;;;;;;24.12;51.48;101947.00;4986426;28;2819;-76
2023/09/07 11:13:36;;;;;;;;;;;;;;;24.10;51.13;101944.00;4970233;28;2777;-72
2023/09/07 11:16:03;;;;;;;;;;;;;;;23.96;52.06;101941.94;4974917;28;3064;-76
2023/09/07 11:18:30;;;;;;;;;;;;;;;23.99;51.88;101929.06;4973368;28;2879;-70
2023/09/07 11:20:56;;;;;;;;;;;;;;;23.92;51.30;101935.22;4975922;28;2966;-74
2023/09/07 11:23:24;;;;;;;;;;;;;;;24.04;50.98;101935.78;4972547;28;2905;-74
2023/09/07 11:25:50;;;;;;;;;;;;;;;24.19;50.70;101935.09;4967885;28;2834;-77
2023/09/07 11:28:19;;;;;;;;;;;;;;;24.30;50.04;101929.75;4954551;28;6837;-77
2023/09/07 11:31:03;;;;;;;;;;;;;;;24.35;49.55;101931.44;4968637;28;6659;-71
2023/09/07 11:33:33;;;;;;;;;;;;;;;24.42;49.44;101919.50;4975303;28;2558;-74
2023/09/07 11:36:00;;;;;;;;;;;;;;;24.54;49.16;101922.25;4961147;28;7029;-73
2023/09/07 11:38:29;;;;;;;;;;;;;;;24.42;48.55;101928.19;4960371;28;6770;-72
2023/09/07 11:40:56;;;;;;;;;;;;;;;24.24;49.83;101930.22;4982817;28;1911;-70
2023/09/07 11:43:23;;;;;;;;;;;;;;;24.20;49.83;101913.41;4977748;28;1601;-72
2023/09/07 11:45:49;;;;;;;;;;;;;;;24.20;49.86;101913.41;4974021;28;3341;-72
2023/09/07 11:48:16;;;;;;;;;;;;;;;24.35;49.83;101916.97;4975510;28;2842;-73
2023/09/07 11:50:42;;;;;;;;;;;;;;;24.45;49.30;101914.56;4969031;28;4025;-73
2023/09/07 11:53:09;;;;;;;;;;;;;;;24.53;49.11;101917.09;4972615;28;2647;-72
2023/09/07 11:55:35;;;;;;;;;;;;;;;24.17;48.63;101920.50;4976104;28;2509;-77
2023/09/07 11:58:02;;;;;;;;;;;;;;;24.03;48.43;101914.06;4978831;28;1752;-77
2023/09/07 12:00:30;;;;;;;;;;;;;;;23.99;47.83;101928.31;4970153;28;6312;-78
2023/09/07 12:02:57;;;;;;;;;;;;;;;24.02;47.22;101921.22;4950017;28;2586;-75
2023/09/07 12:05:24;;;;;;;;;;;;;;;24.08;47.97;101915.00;4950498;28;2703;-73
2023/09/07 12:07:50;;;;;;;;;;;;;;;23.94;47.66;101915.81;4956982;28;4129;-72
2023/09/07 12:10:17;;;;;;;;;;;;;;;23.91;47.91;101925.03;4958806;28;3869;-74
2023/09/07 12:12:43;;;;;;;;;;;;;;;23.96;47.93;101912.25;4957601;28;2528;-72
2023/09/07 12:15:11;;;;;;;;;;;;;;;23.95;48.15;101910.75;4960778;28;2710;-73
2023/09/07 12:17:37;;;;;;;;;;;;;;;23.99;48.42;101913.84;4951023;28;3653;-80
2023/09/07 12:20:09;;;;;;;;;;;;;;;24.19;49.13;101909.03;4951540;28;4274;-74
2023/09/07 12:22:37;;;;;;;;;;;;;;;24.33;49.32;101908.22;4942673;28;6999;-76
2023/09/07 12:25:06;;;;;;;;;;;;;;;24.43;49.02;101917.34;4955533;28;6842;-75
2023/09/07 12:27:43;;;;;;;;;;;;;;;24.54;49.01;101910.66;4962194;28;1632;-73
2023/09/07 12:30:20;;;;;;;;;;;;;;;24.60;48.83;101913.84;4954713;28;6530;-72
2023/09/07 12:32:46;;;;;;;;;;;;;;;24.53;49.33;101909.16;4975556;28;2831;-70
2023/09/07 12:35:14;;;;;;;;;;;;;;;24.54;49.16;101909.91;4972881;28;2411;-70
2023/09/07 12:37:41;;;;;;;;;;;;;;;24.49;49.29;101908.22;4973330;28;2897;-69
2023/09/07 12:40:12;;;;;;;;;;;;;;;24.50;49.62;101913.38;4971967;28;2925;-73
2023/09/07 12:42:39;;;;;;;;;;;;;;;24.57;49.15;101906.44;4970689;28;2687;-76
2023/09/07 12:45:06;;;;;;;;;;;;;;;24.61;48.71;101897.94;4968598;28;2790;-83
2023/09/07 12:47:33;;;;;;;;;;;;;;;24.65;48.59;101903.94;4973181;28;2873;-78